This is the latest recevied weather packets stored in our database for station/object NG7M. If no packets are shown the sender has not sent any weather packets the latest 10 day(s).
| Time | Temp. | Humidity | Pressure | Rain* | Wind** | Luminosity | Snow |
|---|---|---|---|---|---|---|---|
| 1778013903 | 12.78° C | 63% | 1010.3 hPa | 0.25 mm | - | - | - |
| 1778013304 | 13.33° C | 60% | 1010.3 hPa | 0 mm | - | - | - |
| 1778011504 | 14.44° C | 41% | 1009.9 hPa | 0 mm | - | - | - |
| 1778008504 | 14.44° C | 41% | 1009.5 hPa | 0 mm | - | - | - |
| 1778007904 | 14.44° C | 42% | 1009.5 hPa | 0 mm | - | - | - |
| 1778007604 | 14.44° C | 43% | 1009.5 hPa | 0 mm | - | - | - |
| 1778005803 | 13.89° C | 44% | 1009.8 hPa | 0 mm | - | - | - |
| 1778002804 | 13.89° C | 46% | 1009.9 hPa | 0 mm | - | - | - |
| 1778001303 | 13.89° C | 45% | 1009.5 hPa | 0 mm | - | - | - |
| 1778000703 | 13.89° C | 44% | 1009.3 hPa | 0 mm | - | - | - |
| 1777999504 | 13.89° C | 45% | 1009.4 hPa | 0 mm | - | - | - |
| 1777998903 | 13.89° C | 44% | 1009.4 hPa | 0 mm | - | - | - |
| 1777998303 | 13.33° C | 44% | 1009.4 hPa | 0 mm | - | - | - |
| 1777997703 | 13.33° C | 45% | 1009.3 hPa | 0 mm | - | - | - |
| 1777993504 | 13.89° C | 47% | 1008.7 hPa | 0 mm | - | - | - |
| 1777988403 | 13.33° C | 58% | 1008.5 hPa | 0 mm | - | - | - |
| 1777986304 | 13.33° C | 58% | 1007.7 hPa | 0 mm | - | - | - |
| 1777985704 | 13.33° C | 57% | 1007.7 hPa | 0 mm | - | - | - |
| 1777985103 | 13.33° C | 57% | 1007.6 hPa | 0 mm | - | - | - |
| 1777983603 | 13.33° C | 58% | 1007.6 hPa | 0 mm | - | - | - |
| 1777981804 | 13.33° C | 60% | 1007.5 hPa | 0 mm | - | - | - |
| 1777981203 | 13.33° C | 59% | 1007.5 hPa | 0 mm | - | - | - |
| 1777980904 | 13.33° C | 59% | 1007.4 hPa | 0 mm | - | - | - |
| 1777980304 | 13.33° C | 58% | 1007.4 hPa | 0 mm | - | - | - |
| 1777978503 | 13.33° C | 57% | 1007.3 hPa | 0 mm | - | - | - |
* Rain latest hour (hover to see other rain measurements)
** Current wind speed in m/s (hover to see current wind gust speed)